Time;durP1;ratioP1;P1;durP2;ratioP2;P2;SDS_P1;SDS_P2;PMS_P1;PMS_P2;Temp;Humidity;BMP_temperature;BMP_pressure;BME280_temperature;BME280_humidity;BME280_pressure;Samples;Min_cycle;Max_cycle;Signal;HPM_P1;HPM_P2
2022/07/30 00:01:21;;;;;;;4.38;3.13;;;;;;;23.65;nan;-24473.47;5078487;28;20174;-63
2022/07/30 00:04:39;;;;;;;4.22;3.25;;;;;;;24.22;nan;-24488.78;5075699;28;20170;-65
2022/07/30 00:07:05;;;;;;;4.18;3.08;;;;;;;23.86;nan;-24478.97;5073824;28;20181;-64
2022/07/30 00:09:30;;;;;;;4.65;3.40;;;;;;;23.87;nan;-24479.25;5073485;28;20230;-64
2022/07/30 00:11:56;;;;;;;6.25;3.53;;;;;;;23.86;nan;-24478.97;5075617;28;20256;-62
2022/07/30 00:14:21;;;;;;;6.07;3.00;;;;;;;24.12;nan;-24486.28;5076044;28;20222;-64
2022/07/30 00:16:47;;;;;;;4.53;3.17;;;;;;;23.89;nan;-24479.81;5076148;28;20199;-62
2022/07/30 00:19:12;;;;;;;4.35;3.47;;;;;;;24.14;nan;-24486.69;5073414;28;20664;-64
2022/07/30 00:21:38;;;;;;;4.78;3.45;;;;;;;24.16;nan;-24487.41;5073668;28;20278;-62
2022/07/30 00:24:04;;;;;;;5.00;2.90;;;;;;;24.18;nan;-24487.81;5075270;28;20676;-61
2022/07/30 00:26:30;;;;;;;4.60;2.95;;;;;;;24.18;nan;-24487.94;5078024;28;20166;-64
2022/07/30 00:28:55;;;;;;;4.72;3.13;;;;;;;23.89;nan;-24479.81;5076246;28;20519;-64
2022/07/30 00:31:20;;;;;;;4.05;2.95;;;;;;;24.15;nan;-24486.97;5081740;28;20170;-62
2022/07/30 00:33:46;;;;;;;5.07;3.20;;;;;;;23.92;nan;-24480.78;5079466;28;20265;-64
2022/07/30 00:36:11;;;;;;;6.30;3.45;;;;;;;24.20;nan;-24488.50;5079893;28;20189;-63
2022/07/30 00:38:37;;;;;;;4.80;3.20;;;;;;;24.03;nan;-24483.81;5076046;28;20220;-62
2022/07/30 00:41:02;;;;;;;4.68;3.35;;;;;;;23.98;nan;-24482.28;5076996;28;20296;-63
2022/07/30 00:43:28;;;;;;;4.65;3.10;;;;;;;23.70;nan;-24474.69;5081273;28;20169;-64
2022/07/30 00:45:53;;;;;;;4.78;3.33;;;;;;;23.64;nan;-24473.03;5079264;28;20667;-63
2022/07/30 00:48:18;;;;;;;5.18;3.17;;;;;;;23.12;nan;-24458.81;5074584;28;20178;-61
2022/07/30 00:50:44;;;;;;;5.10;3.40;;;;;;;23.05;nan;-24457.03;5079210;28;20648;-62
2022/07/30 00:53:09;;;;;;;6.65;3.65;;;;;;;22.80;nan;-24450.25;5076683;28;20235;-65
2022/07/30 00:55:35;;;;;;;5.75;3.65;;;;;;;22.66;nan;-24446.25;5078845;28;20187;-64
2022/07/30 00:58:01;;;;;;;5.50;3.83;;;;;;;22.54;nan;-24443.06;5078927;28;20236;-62
2022/07/30 01:00:27;;;;;;;4.82;3.08;;;;;;;22.28;nan;-24436.00;5077112;28;20201;-64
2022/07/30 01:02:53;;;;;;;5.32;3.05;;;;;;;22.61;nan;-24444.84;5082400;28;20256;-63
2022/07/30 01:05:19;;;;;;;5.97;3.42;;;;;;;22.25;nan;-24435.03;5080747;28;20362;-61
2022/07/30 01:07:44;;;;;;;4.75;3.10;;;;;;;22.44;nan;-24440.44;5080584;28;20193;-62
2022/07/30 01:10:13;;;;;;;4.63;3.03;;;;;;;22.41;nan;-24439.47;5078174;28;20220;-65
2022/07/30 01:12:38;;;;;;;5.30;3.30;;;;;;;22.36;nan;-24438.06;5080018;28;20218;-64
2022/07/30 01:15:06;;;;;;;4.93;3.28;;;;;;;22.25;nan;-24435.16;5081113;28;20185;-62
2022/07/30 01:17:33;;;;;;;4.10;3.03;;;;;;;22.57;nan;-24443.88;5080606;28;20264;-62
2022/07/30 01:20:03;;;;;;;5.18;3.28;;;;;;;22.17;nan;-24432.81;5078681;28;20631;-64
2022/07/30 01:22:31;;;;;;;6.35;3.17;;;;;;;22.50;nan;-24441.94;5077778;28;20667;-62
2022/07/30 01:25:02;;;;;;;4.75;3.13;;;;;;;22.53;nan;-24442.78;5077989;28;20186;-63
2022/07/30 01:27:31;;;;;;;5.07;3.33;;;;;;;22.58;nan;-24444.16;5079194;28;20226;-63
2022/07/30 01:30:00;;;;;;;6.40;3.22;;;;;;;22.30;nan;-24436.41;5076186;28;20186;-64
2022/07/30 01:32:27;;;;;;;4.75;3.15;;;;;;;22.40;nan;-24439.31;5071308;28;20273;-64
2022/07/30 01:34:56;;;;;;;6.63;3.50;;;;;;;22.16;nan;-24432.53;5077883;28;20174;-63
2022/07/30 01:37:23;;;;;;;4.95;3.20;;;;;;;22.00;nan;-24428.38;5070514;28;20166;-64
2022/07/30 01:39:50;;;;;;;5.20;3.35;;;;;;;21.85;nan;-24424.22;5074483;28;20664;-61
2022/07/30 01:42:18;;;;;;;4.38;3.17;;;;;;;21.73;nan;-24420.91;5078349;28;20177;-63
2022/07/30 01:44:45;;;;;;;3.63;3.03;;;;;;;21.65;nan;-24418.69;5078537;28;20224;-65
2022/07/30 01:47:14;;;;;;;5.85;3.30;;;;;;;21.21;nan;-24406.63;5077682;28;20177;-65
2022/07/30 01:49:40;;;;;;;4.45;3.05;;;;;;;21.34;nan;-24410.25;5075770;28;20285;-65
2022/07/30 01:52:07;;;;;;;5.43;3.17;;;;;;;21.24;nan;-24407.31;5077639;28;20173;-64
2022/07/30 01:54:36;;;;;;;4.47;2.70;;;;;;;21.38;nan;-24411.34;5077714;28;20224;-64
2022/07/30 01:57:02;;;;;;;4.68;3.58;;;;;;;21.32;nan;-24409.53;5079679;28;20176;-63
2022/07/30 01:59:31;;;;;;;5.97;3.53;;;;;;;21.55;nan;-24415.91;5079136;28;20621;-64
2022/07/30 02:01:57;;;;;;;5.43;3.53;;;;;;;21.59;nan;-24417.03;5077025;28;20216;-64
2022/07/30 02:04:23;;;;;;;5.28;3.00;;;;;;;21.42;nan;-24412.31;5079358;28;20174;-64
2022/07/30 02:06:59;;;;;;;4.63;3.20;;;;;;;21.25;nan;-24407.75;5072520;28;20247;-63
2022/07/30 02:09:32;;;;;;;4.20;3.08;;;;;;;21.52;nan;-24415.09;5078444;28;20648;-64
2022/07/30 02:14:51;;;;;;;6.65;3.38;;;;;;;20.95;nan;-24399.41;5075921;28;20180;-62
2022/07/30 02:17:22;;;;;;;4.97;3.53;;;;;;;21.31;nan;-24409.28;5078061;28;20173;-63
2022/07/30 02:19:53;;;;;;;5.10;3.35;;;;;;;21.32;nan;-24409.53;5076814;28;20305;-63
2022/07/30 02:22:22;;;;;;;5.80;3.20;;;;;;;21.39;nan;-24411.50;5078668;28;20182;-64
2022/07/30 02:24:50;;;;;;;6.15;3.40;;;;;;;21.35;nan;-24410.50;5074730;28;20227;-64
2022/07/30 02:27:23;;;;;;;7.60;3.03;;;;;;;21.07;nan;-24402.75;5079946;28;20494;-64
2022/07/30 02:29:49;;;;;;;4.13;3.03;;;;;;;;;;5076272;28;20309;-63
2022/07/30 02:32:19;;;;;;;5.60;3.42;;;;;;;21.34;nan;-24410.25;5078215;28;20209;-63
2022/07/30 02:34:48;;;;;;;6.68;3.50;;;;;;;21.30;nan;-24409.13;5077019;28;20189;-62
2022/07/30 02:37:14;;;;;;;5.68;3.40;;;;;;;21.27;nan;-24408.28;5077242;28;20189;-64
2022/07/30 02:39:42;;;;;;;4.13;2.80;;;;;;;21.32;nan;-24409.53;5077093;28;20185;-63
2022/07/30 02:42:09;;;;;;;3.92;2.83;;;;;;;18.88;nan;-24342.56;5076847;28;20212;-65
2022/07/30 02:44:37;;;;;;;4.30;3.20;;;;;;;21.02;nan;-24401.50;5077824;28;20269;-63
2022/07/30 02:47:04;;;;;;;5.15;2.97;;;;;;;20.76;nan;-24394.16;5076617;28;20585;-64
2022/07/30 02:49:34;;;;;;;5.57;3.28;;;;;;;20.80;nan;-24395.25;5078393;28;20638;-63
2022/07/30 02:52:01;;;;;;;5.13;3.03;;;;;;;20.68;nan;-24392.06;5075813;28;20170;-63
2022/07/30 02:54:29;;;;;;;5.43;3.13;;;;;;;21.03;nan;-24401.63;5078571;28;20178;-63
2022/07/30 02:56:56;;;;;;;6.15;3.63;;;;;;;20.65;nan;-24391.38;5071448;28;20174;-64
2022/07/30 02:59:23;;;;;;;4.47;3.20;;;;;;;20.67;nan;-24391.78;5080180;28;20193;-62
2022/07/30 03:01:50;;;;;;;5.82;3.20;;;;;;;20.63;nan;-24390.69;5072563;28;20561;-63
2022/07/30 03:04:19;;;;;;;5.38;3.13;;;;;;;20.95;nan;-24399.41;5074947;28;20166;-65
2022/07/30 03:06:47;;;;;;;7.32;3.58;;;;;;;20.98;nan;-24400.25;5080522;28;20174;-65
2022/07/30 03:10:14;;;;;;;5.10;3.38;;;;;;;21.10;nan;-24403.56;5074215;28;20553;-64
2022/07/30 03:13:03;;;;;;;5.55;3.17;;;;;;;21.01;nan;-24401.09;5070288;28;20324;-62
2022/07/30 03:15:29;;;;;;;5.65;3.13;;;;;;;20.80;nan;-24395.25;5077973;28;20176;-63
2022/07/30 03:17:57;;;;;;;4.80;3.25;;;;;;;21.08;nan;-24403.16;5076126;28;20621;-63
2022/07/30 03:20:26;;;;;;;6.38;3.65;;;;;;;20.83;nan;-24396.09;5066239;28;20660;-62
2022/07/30 03:22:53;;;;;;;5.28;3.35;;;;;;;21.07;nan;-24402.75;5078624;28;20176;-64
2022/07/30 03:25:24;;;;;;;7.35;3.50;;;;;;;21.58;nan;-24416.88;5078288;28;20325;-63
2022/07/30 03:27:51;;;;;;;4.93;3.25;;;;;;;21.95;nan;-24427.00;5070433;28;20184;-62
2022/07/30 03:30:17;;;;;;;5.15;3.55;;;;;;;21.99;nan;-24428.13;5075378;28;20176;-65
2022/07/30 03:32:44;;;;;;;6.90;3.47;;;;;;;22.81;nan;-24450.53;5076166;28;20173;-61
2022/07/30 03:35:10;;;;;;;4.22;3.05;;;;;;;23.38;nan;-24465.88;5076604;28;20181;-63
2022/07/30 03:37:38;;;;;;;4.80;3.25;;;;;;;23.93;nan;-24480.91;5077903;28;20173;-65
2022/07/30 03:40:05;;;;;;;7.05;3.67;;;;;;;24.20;nan;-24488.50;5076161;28;20218;-65
2022/07/30 03:42:32;;;;;;;5.45;3.38;;;;;;;24.73;nan;-24502.69;5078187;28;20175;-65
2022/07/30 03:44:59;;;;;;;4.88;3.40;;;;;;;25.65;nan;-24527.75;5078363;28;20303;-64
2022/07/30 03:47:26;;;;;;;4.38;3.30;;;;;;;25.68;nan;-24528.56;5077318;28;20182;-64
2022/07/30 03:49:51;;;;;;;6.20;3.58;;;;;;;26.43;nan;-24548.91;5076367;28;20185;-63
2022/07/30 03:52:18;;;;;;;5.30;3.78;;;;;;;27.09;nan;-24567.03;5075934;28;20186;-65
2022/07/30 03:54:45;;;;;;;5.35;3.30;;;;;;;27.79;nan;-24585.81;5078363;28;20190;-65
2022/07/30 03:57:10;;;;;;;7.63;3.50;;;;;;;27.98;nan;-24591.00;5076090;28;20196;-63
2022/07/30 03:59:37;;;;;;;6.30;3.53;;;;;;;28.77;nan;-24612.50;5077486;28;20197;-62
2022/07/30 04:02:03;;;;;;;5.93;3.47;;;;;;;28.90;nan;-24615.91;5075923;28;20620;-65
2022/07/30 04:04:29;;;;;;;6.75;4.10;;;;;;;29.49;nan;-24631.75;5079164;28;20180;-62
2022/07/30 04:06:56;;;;;;;4.43;3.30;;;;;;;29.70;nan;-24637.50;5079343;28;20254;-63
2022/07/30 04:09:21;;;;;;;5.57;3.50;;;;;;;29.41;nan;-24629.84;5083650;28;20170;-63
2022/07/30 04:11:47;;;;;;;6.07;3.85;;;;;;;29.78;nan;-24639.69;5080245;28;20248;-60
2022/07/30 04:14:12;;;;;;;4.53;3.22;;;;;;;30.38;nan;-24655.91;5080291;28;20696;-63
2022/07/30 04:16:59;;;;;;;5.07;3.70;;;;;;;31.28;nan;-24680.00;5081013;28;20620;-61
2022/07/30 04:19:29;;;;;;;10.85;3.75;;;;;;;31.63;nan;-24689.53;5082384;28;20220;-62
2022/07/30 04:21:56;;;;;;;4.15;3.03;;;;;;;31.46;nan;-24685.03;5081736;28;20537;-62
2022/07/30 04:24:23;;;;;;;4.75;3.10;;;;;;;31.91;nan;-24697.00;5083246;28;20277;-63
2022/07/30 04:26:51;;;;;;;4.13;3.08;;;;;;;31.91;nan;-24697.00;5073093;28;20231;-62
2022/07/30 04:29:17;;;;;;;6.60;4.25;;;;;;;31.86;nan;-24695.63;5081174;28;20541;-62
2022/07/30 04:31:43;;;;;;;5.30;3.80;;;;;;;32.09;nan;-24701.88;5081785;28;20177;-61
2022/07/30 04:34:13;;;;;;;5.05;3.65;;;;;;;32.30;nan;-24707.47;5079430;28;20660;-63
2022/07/30 04:36:39;;;;;;;5.05;3.67;;;;;;;32.28;nan;-24706.91;5078984;28;20174;-60
2022/07/30 04:39:04;;;;;;;5.95;4.03;;;;;;;32.61;nan;-24715.72;5080714;28;20189;-61
2022/07/30 04:41:30;;;;;;;6.38;3.80;;;;;;;32.40;nan;-24710.31;5078340;28;20256;-60
2022/07/30 04:43:55;;;;;;;7.32;4.43;;;;;;;32.35;nan;-24708.81;5079627;28;20556;-64
2022/07/30 04:46:20;;;;;;;7.70;4.13;;;;;;;32.29;nan;-24707.19;5068364;28;20602;-64
2022/07/30 04:48:46;;;;;;;5.22;3.58;;;;;;;32.38;nan;-24709.75;5080172;28;20613;-60
2022/07/30 04:51:18;;;;;;;10.40;4.70;;;;;;;32.31;nan;-24707.72;5074960;28;20187;-63
2022/07/30 04:53:45;;;;;;;6.70;4.28;;;;;;;32.03;nan;-24700.13;5095536;28;20268;-61
2022/07/30 04:56:12;;;;;;;6.85;4.75;;;;;;;31.51;nan;-24686.41;5078968;28;20176;-62
2022/07/30 04:58:40;;;;;;;5.82;4.10;;;;;;;31.52;nan;-24686.53;5077267;28;20172;-63
2022/07/30 05:01:07;;;;;;;6.75;4.15;;;;;;;31.24;nan;-24679.06;5081405;28;20663;-63
2022/07/30 05:03:34;;;;;;;6.47;4.60;;;;;;;31.16;nan;-24676.88;5078090;28;20196;-61
2022/07/30 05:06:00;;;;;;;6.53;4.28;;;;;;;30.60;nan;-24661.91;5081172;28;20282;-63
2022/07/30 05:08:27;;;;;;;10.10;4.57;;;;;;;30.47;nan;-24658.22;5080809;28;20561;-61
2022/07/30 05:10:52;;;;;;;7.15;4.45;;;;;;;30.29;nan;-24653.44;5073919;28;20186;-60
2022/07/30 05:13:18;;;;;;;7.97;4.82;;;;;;;29.91;nan;-24643.09;5082692;28;20299;-64
2022/07/30 05:15:43;;;;;;;8.40;4.40;;;;;;;30.20;nan;-24651.13;5075582;28;20644;-61
2022/07/30 05:18:10;;;;;;;6.80;5.10;;;;;;;29.98;nan;-24645.00;5080853;28;20176;-62
2022/07/30 05:20:36;;;;;;;7.95;4.40;;;;;;;29.66;nan;-24636.53;5073513;28;20213;-60
2022/07/30 05:23:01;;;;;;;7.57;4.57;;;;;;;28.58;nan;-24607.28;5076138;28;20656;-60
2022/07/30 05:25:27;;;;;;;8.32;4.57;;;;;;;29.28;nan;-24626.28;5077401;28;20213;-61
2022/07/30 05:27:55;;;;;;;7.93;5.07;;;;;;;28.81;nan;-24613.59;5075871;28;20201;-61
2022/07/30 05:30:21;;;;;;;9.27;4.47;;;;;;;29.05;nan;-24619.88;5078381;28;20177;-63
2022/07/30 05:32:46;;;;;;;6.03;4.38;;;;;;;28.69;nan;-24610.31;5077697;28;20234;-63
2022/07/30 05:35:12;;;;;;;7.35;4.38;;;;;;;28.20;nan;-24596.91;5075686;28;20174;-60
2022/07/30 05:37:37;;;;;;;8.85;4.55;;;;;;;28.16;nan;-24595.81;5073203;28;20181;-61
2022/07/30 05:40:03;;;;;;;6.68;4.40;;;;;;;28.12;nan;-24594.84;5079782;28;20737;-60
2022/07/30 05:42:29;;;;;;;7.25;4.35;;;;;;;28.13;nan;-24595.00;5080135;28;20177;-63
2022/07/30 05:44:54;;;;;;;5.80;4.40;;;;;;;27.94;nan;-24590.06;5071610;28;20291;-63
2022/07/30 05:47:20;;;;;;;5.28;3.80;;;;;;;27.94;nan;-24589.91;5076541;28;20636;-61
2022/07/30 05:49:46;;;;;;;7.78;4.60;;;;;;;27.55;nan;-24579.38;5076856;28;20173;-62
2022/07/30 05:52:11;;;;;;;6.40;4.25;;;;;;;27.86;nan;-24587.88;5074281;28;20540;-62
2022/07/30 05:54:37;;;;;;;7.20;5.20;;;;;;;27.86;nan;-24587.72;5079115;28;20301;-60
2022/07/30 05:57:03;;;;;;;6.80;4.63;;;;;;;27.26;nan;-24571.56;5075018;28;20243;-63
2022/07/30 05:59:28;;;;;;;7.07;4.55;;;;;;;;;;5081070;28;20267;-60
2022/07/30 06:01:54;;;;;;;6.50;4.57;;;;;;;27.82;nan;-24586.63;5074570;28;20181;-62
2022/07/30 06:04:19;;;;;;;15.13;4.82;;;;;;;27.99;nan;-24591.28;5081687;28;20213;-60
2022/07/30 06:06:45;;;;;;;6.28;4.10;;;;;;;27.72;nan;-24584.03;5072680;28;20174;-62
2022/07/30 06:09:10;;;;;;;7.95;4.75;;;;;;;28.13;nan;-24595.00;5074528;28;20174;-63
2022/07/30 06:11:36;;;;;;;6.28;4.53;;;;;;;26.55;nan;-24552.22;5074676;28;20177;-62
2022/07/30 06:14:01;;;;;;;6.07;4.28;;;;;;;28.34;nan;-24600.75;5071901;28;20233;-60
2022/07/30 06:16:27;;;;;;;5.65;4.22;;;;;;;28.46;nan;-24604.03;5073799;28;20699;-60
2022/07/30 06:18:52;;;;;;;6.35;4.10;;;;;;;28.30;nan;-24599.66;5074339;28;20593;-60
2022/07/30 06:21:17;;;;;;;8.43;4.47;;;;;;;28.40;nan;-24602.38;5076740;28;20204;-63
2022/07/30 06:23:43;;;;;;;6.70;4.20;;;;;;;27.98;nan;-24591.00;5071056;28;20251;-62
2022/07/30 06:26:08;;;;;;;7.45;4.30;;;;;;;28.53;nan;-24606.06;5077730;28;20261;-60
2022/07/30 06:28:34;;;;;;;5.63;4.03;;;;;;;28.63;nan;-24608.66;5076471;28;20615;-63
2022/07/30 06:30:59;;;;;;;5.35;4.13;;;;;;;28.69;nan;-24610.16;5079479;28;20221;-63
2022/07/30 06:33:25;;;;;;;5.82;3.92;;;;;;;28.31;nan;-24600.06;5077857;28;20173;-66
2022/07/30 06:35:50;;;;;;;5.45;4.05;;;;;;;28.52;nan;-24605.66;5074337;28;20178;-61
2022/07/30 06:38:16;;;;;;;5.63;4.18;;;;;;;28.88;nan;-24615.38;5078016;28;20200;-63
2022/07/30 06:40:41;;;;;;;6.43;4.20;;;;;;;28.61;nan;-24608.13;5072875;28;20267;-62
2022/07/30 06:43:07;;;;;;;5.30;3.88;;;;;;;29.04;nan;-24619.75;5074283;28;20181;-63
2022/07/30 06:45:32;;;;;;;6.50;4.50;;;;;;;28.92;nan;-24616.59;5072137;28;20170;-65
2022/07/30 06:47:58;;;;;;;7.18;4.07;;;;;;;29.09;nan;-24621.09;5072901;28;20170;-61
2022/07/30 06:50:25;;;;;;;7.13;4.60;;;;;;;28.87;nan;-24615.09;5076855;28;20174;-60
2022/07/30 06:52:50;;;;;;;5.60;4.05;;;;;;;29.16;nan;-24623.03;5073630;28;20188;-61
2022/07/30 06:55:16;;;;;;;7.00;4.82;;;;;;;29.06;nan;-24620.28;5071462;28;20173;-62
2022/07/30 06:57:41;;;;;;;7.38;4.60;;;;;;;29.33;nan;-24627.53;5071400;28;20158;-62
2022/07/30 07:00:07;;;;;;;6.53;4.50;;;;;;;29.24;nan;-24625.06;5071112;28;20198;-61
2022/07/30 07:02:33;;;;;;;6.40;4.45;;;;;;;29.19;nan;-24623.84;5071430;28;20175;-64
2022/07/30 07:04:58;;;;;;;6.78;4.60;;;;;;;29.52;nan;-24632.59;5071638;28;20279;-64
2022/07/30 07:07:24;;;;;;;5.80;4.55;;;;;;;29.71;nan;-24637.91;5071545;28;20563;-63
2022/07/30 07:09:49;;;;;;;6.28;4.80;;;;;;;29.46;nan;-24630.94;5070938;28;20596;-64
2022/07/30 07:12:15;;;;;;;6.63;4.60;;;;;;;29.92;nan;-24643.50;5070898;28;20169;-62
2022/07/30 07:14:40;;;;;;;7.63;4.82;;;;;;;30.04;nan;-24646.63;5071811;28;20162;-63
2022/07/30 07:17:05;;;;;;;6.65;5.05;;;;;;;29.75;nan;-24638.84;5071195;28;20202;-65
2022/07/30 07:19:31;;;;;;;10.20;5.32;;;;;;;29.83;nan;-24641.03;5071672;28;20189;-63
2022/07/30 07:21:57;;;;;;;6.65;4.63;;;;;;;29.97;nan;-24644.72;5070850;28;20487;-61
2022/07/30 07:24:22;;;;;;;7.15;4.53;;;;;;;30.03;nan;-24646.38;5073672;28;20256;-63
2022/07/30 07:26:48;;;;;;;6.80;4.63;;;;;;;30.14;nan;-24649.50;5071020;28;20220;-63
2022/07/30 07:29:13;;;;;;;7.35;4.53;;;;;;;30.14;nan;-24649.38;5070140;28;20174;-65
2022/07/30 07:31:39;;;;;;;9.10;4.60;;;;;;;30.38;nan;-24655.78;5069826;28;20554;-63
2022/07/30 07:34:05;;;;;;;6.70;4.55;;;;;;;30.17;nan;-24650.31;5071253;28;20321;-63
2022/07/30 07:36:30;;;;;;;6.53;4.45;;;;;;;30.47;nan;-24658.38;5073335;28;20168;-63
2022/07/30 07:38:56;;;;;;;6.55;4.32;;;;;;;30.25;nan;-24652.50;5071629;28;20239;-65
2022/07/30 07:41:21;;;;;;;6.40;4.63;;;;;;;29.57;nan;-24634.09;5075225;28;20597;-63
2022/07/30 07:43:47;;;;;;;6.47;4.78;;;;;;;29.40;nan;-24629.44;5075064;28;20173;-61
2022/07/30 07:46:15;;;;;;;7.07;5.03;;;;;;;29.69;nan;-24637.22;5075331;28;20177;-64
2022/07/30 07:48:41;;;;;;;7.07;4.45;;;;;;;30.25;nan;-24652.34;5076815;28;20165;-63
2022/07/30 07:51:07;;;;;;;6.97;4.28;;;;;;;30.11;nan;-24648.69;5077203;28;20180;-64
2022/07/30 07:53:32;;;;;;;7.50;4.45;;;;;;;30.03;nan;-24646.50;5074679;28;20176;-64
2022/07/30 07:55:58;;;;;;;7.07;4.75;;;;;;;29.88;nan;-24642.25;5075208;28;20149;-65
2022/07/30 07:58:24;;;;;;;7.63;4.55;;;;;;;30.19;nan;-24650.88;5074963;28;20200;-64
2022/07/30 08:00:50;;;;;;;6.22;4.30;;;;;;;30.14;nan;-24649.38;5073871;28;20193;-63
2022/07/30 08:03:15;;;;;;;7.53;5.03;;;;;;;29.64;nan;-24636.00;5075170;28;20176;-65
2022/07/30 08:05:41;;;;;;;5.75;4.45;;;;;;;29.35;nan;-24628.22;5074489;28;20215;-63
2022/07/30 08:08:06;;;;;;;10.18;4.80;;;;;;;29.48;nan;-24631.50;5074766;28;20475;-65
2022/07/30 08:10:32;;;;;;;7.40;4.68;;;;;;;30.16;nan;-24649.91;5074557;28;20166;-64
2022/07/30 08:12:57;;;;;;;6.43;4.47;;;;;;;30.37;nan;-24655.63;5074668;28;20219;-64
2022/07/30 08:15:23;;;;;;;7.68;4.32;;;;;;;30.58;nan;-24661.34;5075000;28;20165;-65
2022/07/30 08:17:49;;;;;;;6.03;4.40;;;;;;;30.49;nan;-24658.78;5074535;28;20236;-61
2022/07/30 08:20:15;;;;;;;6.05;4.60;;;;;;;24.90;nan;-24507.38;5074560;28;20193;-62
2022/07/30 08:22:41;;;;;;;6.53;4.22;;;;;;;30.55;nan;-24660.53;5074521;28;20169;-63
2022/07/30 08:25:07;;;;;;;5.85;4.20;;;;;;;30.56;nan;-24660.69;5074646;28;20168;-62
2022/07/30 08:27:33;;;;;;;9.98;4.30;;;;;;;25.32;nan;-24518.81;5074625;28;20173;-63
2022/07/30 08:30:06;;;;;;;7.35;4.50;;;;;;;29.98;nan;-24645.13;5074524;28;20195;-63
2022/07/30 08:32:31;;;;;;;5.82;4.43;;;;;;;30.21;nan;-24651.28;5074090;28;20174;-62
2022/07/30 08:34:57;;;;;;;6.18;4.60;;;;;;;30.46;nan;-24658.09;5074527;28;20162;-61
2022/07/30 08:37:22;;;;;;;6.63;4.43;;;;;;;30.31;nan;-24654.00;5074318;28;20166;-63
2022/07/30 08:39:47;;;;;;;5.82;4.32;;;;;;;29.98;nan;-24645.00;5074222;28;20208;-63
2022/07/30 08:42:13;;;;;;;6.65;4.68;;;;;;;30.27;nan;-24652.91;5074236;28;20162;-64
2022/07/30 08:44:40;;;;;;;9.05;4.80;;;;;;;30.49;nan;-24658.78;5074110;28;20175;-64
2022/07/30 08:47:09;;;;;;;8.02;3.92;;;;;;;30.29;nan;-24653.44;5074264;28;20177;-62
2022/07/30 08:49:36;;;;;;;5.57;4.07;;;;;;;30.49;nan;-24658.78;5073737;28;20181;-62
2022/07/30 08:52:01;;;;;;;6.88;4.22;;;;;;;30.44;nan;-24657.41;5074133;28;20227;-62
2022/07/30 08:54:27;;;;;;;6.07;4.40;;;;;;;30.78;nan;-24666.66;5074128;28;20161;-64
2022/07/30 08:56:53;;;;;;;5.95;4.28;;;;;;;;;;5074074;28;20173;-64
2022/07/30 08:59:22;;;;;;;7.55;4.38;;;;;;;31.08;nan;-24674.84;5074020;28;20208;-61
2022/07/30 09:01:48;;;;;;;8.05;4.72;;;;;;;31.02;nan;-24673.22;5073913;28;20176;-62
2022/07/30 09:04:14;;;;;;;6.25;4.63;;;;;;;31.39;nan;-24683.13;5073739;28;20259;-62
2022/07/30 09:06:39;;;;;;;7.22;4.40;;;;;;;31.21;nan;-24678.09;5073826;28;20256;-61
2022/07/30 09:09:05;;;;;;;9.25;4.60;;;;;;;31.12;nan;-24675.78;5073729;28;20177;-64
2022/07/30 09:11:32;;;;;;;6.28;4.15;;;;;;;;;;5074091;28;20197;-64
2022/07/30 09:14:07;;;;;;;5.93;4.20;;;;;;;30.84;nan;-24668.16;5072810;28;20240;-64
2022/07/30 09:16:33;;;;;;;6.05;4.30;;;;;;;31.10;nan;-24675.25;5088625;28;20259;-62
2022/07/30 09:19:11;;;;;;;8.38;4.72;;;;;;;31.11;nan;-24675.66;5073623;28;20658;-62
2022/07/30 09:21:36;;;;;;;7.90;4.50;;;;;;;31.20;nan;-24677.84;5073556;28;20164;-62
2022/07/30 09:24:10;;;;;;;5.28;3.88;;;;;;;31.33;nan;-24681.50;5073170;28;20165;-62
2022/07/30 09:27:06;;;;;;;6.30;3.60;;;;;;;31.37;nan;-24682.59;5073273;28;20187;-64
2022/07/30 09:29:32;;;;;;;4.72;3.40;;;;;;;31.20;nan;-24677.84;5072857;28;20189;-63
2022/07/30 09:32:04;;;;;;;5.15;3.45;;;;;;;31.50;nan;-24685.97;5073191;28;20176;-60
2022/07/30 09:34:35;;;;;;;5.78;3.90;;;;;;;31.49;nan;-24685.84;5073268;28;20176;-63
2022/07/30 09:37:22;;;;;;;4.93;3.55;;;;;;;31.30;nan;-24680.56;5075630;28;20174;-64
2022/07/30 09:39:48;;;;;;;5.22;3.25;;;;;;;31.46;nan;-24685.03;5072119;28;20224;-63
2022/07/30 09:42:31;;;;;;;5.88;3.67;;;;;;;31.37;nan;-24682.44;5073207;28;20183;-63
2022/07/30 09:45:07;;;;;;;5.38;3.40;;;;;;;31.58;nan;-24688.16;5073246;28;20220;-64
2022/07/30 09:47:47;;;;;;;5.43;3.65;;;;;;;31.87;nan;-24696.03;5072961;28;20160;-62
2022/07/30 09:50:14;;;;;;;5.50;3.65;;;;;;;31.99;nan;-24699.31;5073068;28;20169;-62
2022/07/30 09:52:43;;;;;;;4.20;3.50;;;;;;;31.58;nan;-24688.16;5072821;28;20173;-60
2022/07/30 09:55:09;;;;;;;5.28;3.97;;;;;;;31.86;nan;-24695.78;5072576;28;20523;-63
2022/07/30 09:57:52;;;;;;;4.78;3.60;;;;;;;31.87;nan;-24695.91;5072913;28;20223;-61
2022/07/30 10:00:21;;;;;;;4.68;3.75;;;;;;;31.92;nan;-24697.41;5072643;28;20275;-62
2022/07/30 10:02:46;;;;;;;5.60;3.20;;;;;;;32.20;nan;-24704.75;5072416;28;20191;-61
2022/07/30 10:05:17;;;;;;;4.68;3.30;;;;;;;32.30;nan;-24707.59;5072661;28;20173;-62
2022/07/30 10:07:51;;;;;;;4.00;3.10;;;;;;;32.42;nan;-24710.84;5072637;28;20154;-64
2022/07/30 10:10:28;;;;;;;4.90;3.25;;;;;;;32.29;nan;-24707.31;5072611;28;20162;-60
2022/07/30 10:12:58;;;;;;;4.03;3.25;;;;;;;32.12;nan;-24702.56;5072596;28;20220;-64
2022/07/30 10:15:28;;;;;;;4.82;3.10;;;;;;;31.78;nan;-24693.47;5072504;28;20176;-61
2022/07/30 10:17:54;;;;;;;5.18;3.58;;;;;;;31.88;nan;-24696.19;5072350;28;20169;-64
2022/07/30 10:20:20;;;;;;;5.88;3.70;;;;;;;32.08;nan;-24701.47;5072328;28;20229;-63
2022/07/30 10:22:47;;;;;;;3.85;3.20;;;;;;;32.17;nan;-24703.94;5072063;28;20246;-61
2022/07/30 10:25:18;;;;;;;4.45;3.20;;;;;;;32.34;nan;-24708.69;5071816;28;20577;-63
2022/07/30 10:27:44;;;;;;;6.10;3.60;;;;;;;32.11;nan;-24702.28;5072361;28;20177;-63
2022/07/30 10:30:10;;;;;;;4.70;3.28;;;;;;;32.24;nan;-24705.81;5072240;28;20169;-63
2022/07/30 10:32:37;;;;;;;4.13;2.95;;;;;;;32.25;nan;-24706.09;5072069;28;20173;-64
2022/07/30 10:35:03;;;;;;;4.38;3.33;;;;;;;32.07;nan;-24701.34;5072062;28;20168;-63
2022/07/30 10:37:31;;;;;;;5.70;3.45;;;;;;;32.22;nan;-24705.28;5072388;28;20300;-62
2022/07/30 10:40:05;;;;;;;6.90;3.42;;;;;;;32.31;nan;-24707.72;5071605;28;20213;-61
2022/07/30 10:42:52;;;;;;;5.25;3.60;;;;;;;32.79;nan;-24720.63;5071906;28;20153;-61
2022/07/30 10:45:22;;;;;;;4.45;2.97;;;;;;;32.40;nan;-24710.16;5072051;28;20232;-63
2022/07/30 10:47:50;;;;;;;4.40;3.20;;;;;;;32.26;nan;-24706.50;5071894;28;20169;-62
2022/07/30 10:50:18;;;;;;;4.63;3.20;;;;;;;32.37;nan;-24709.50;5071752;28;20172;-60
2022/07/30 10:52:51;;;;;;;5.00;3.30;;;;;;;32.38;nan;-24709.75;5071661;28;20150;-62
2022/07/30 10:55:19;;;;;;;3.65;3.00;;;;;;;32.38;nan;-24709.75;5071714;28;20185;-62
2022/07/30 10:58:04;;;;;;;4.63;3.35;;;;;;;32.63;nan;-24716.28;5071712;28;20612;-63
2022/07/30 11:00:43;;;;;;;3.83;2.83;;;;;;;32.29;nan;-24707.19;5071878;28;20339;-62
2022/07/30 11:03:17;;;;;;;3.75;2.90;;;;;;;32.11;nan;-24702.28;5071740;28;20154;-63
2022/07/30 11:05:45;;;;;;;5.18;3.25;;;;;;;32.23;nan;-24705.56;5071489;28;20185;-64
2022/07/30 11:08:39;;;;;;;4.13;2.72;;;;;;;32.50;nan;-24712.75;5071852;28;20165;-60
2022/07/30 11:11:27;;;;;;;4.28;3.15;;;;;;;32.35;nan;-24708.94;5071273;28;20231;-61
2022/07/30 11:14:00;;;;;;;4.70;2.80;;;;;;;32.33;nan;-24708.41;5069989;28;20247;-61
2022/07/30 11:16:31;;;;;;;4.63;3.38;;;;;;;32.73;nan;-24719.00;5071518;28;20276;-62
2022/07/30 11:19:19;;;;;;;3.75;2.70;;;;;;;32.12;nan;-24702.56;5071517;28;20538;-60
2022/07/30 11:21:49;;;;;;;4.50;3.03;;;;;;;32.09;nan;-24701.75;5072362;28;20169;-62
2022/07/30 11:24:45;;;;;;;4.72;3.50;;;;;;;32.58;nan;-24715.06;5068962;28;20177;-60
2022/07/30 11:27:32;;;;;;;4.60;3.13;;;;;;;32.70;nan;-24718.31;5071603;28;20169;-61
2022/07/30 11:29:57;;;;;;;4.80;3.10;;;;;;;32.76;nan;-24719.81;5071304;28;20675;-61
2022/07/30 11:32:31;;;;;;;3.90;3.17;;;;;;;33.13;nan;-24729.69;5071818;28;20173;-60
2022/07/30 11:35:13;;;;;;;4.18;3.20;;;;;;;33.09;nan;-24728.75;5071689;28;20168;-59
2022/07/30 11:38:18;;;;;;;4.45;3.33;;;;;;;32.97;nan;-24725.50;5071133;28;20193;-61
2022/07/30 11:40:49;;;;;;;4.05;2.92;;;;;;;32.79;nan;-24720.63;5070820;28;20612;-60
2022/07/30 11:43:31;;;;;;;4.47;3.00;;;;;;;32.90;nan;-24723.47;5070799;28;20175;-59
2022/07/30 11:46:27;;;;;;;3.90;2.92;;;;;;;33.03;nan;-24726.97;5071159;28;20248;-62
2022/07/30 11:49:07;;;;;;;3.42;2.63;;;;;;;31.98;nan;-24698.91;5071461;28;20212;-61
2022/07/30 11:51:43;;;;;;;3.83;2.80;;;;;;;32.84;nan;-24722.09;5071166;28;20299;-61
2022/07/30 11:54:10;;;;;;;3.17;2.67;;;;;;;32.48;nan;-24712.34;5070971;28;20169;-62